Time;durP1;ratioP1;P1;durP2;ratioP2;P2;SDS_P1;SDS_P2;PMS_P1;PMS_P2;Temp;Humidity;BMP_temperature;BMP_pressure;BME280_temperature;BME280_humidity;BME280_pressure;Samples;Min_cycle;Max_cycle;Signal;HPM_P1;HPM_P2
2022/08/02 00:01:11;;;;;;;;;;;;;;;;;;5020107;28;20329;-84
2022/08/02 00:03:36;;;;;;;;;;;;;;;;;;5023368;28;19917;-84
2022/08/02 00:06:02;;;;;;;;;;;;;;;;;;5025304;28;19913;-84
2022/08/02 00:08:27;;;;;;;;;;;;;;;;;;5019738;28;19919;-83
2022/08/02 00:10:52;;;;;;;;;;;;;;;;;;5020200;28;19913;-83
2022/08/02 00:13:17;;;;;;;;;;;;;;;;;;5023397;28;20032;-83
2022/08/02 00:15:42;;;;;;;;;;;;;;;;;;5021051;28;19953;-84
2022/08/02 00:18:08;;;;;;;;;;;;;;;;;;5026393;28;19952;-84
2022/08/02 00:20:33;;;;;;;;;;;;;;;;;;5019188;28;19917;-84
2022/08/02 00:22:58;;;;;;;;;;;;;;;;;;5018341;28;19925;-84
2022/08/02 00:25:23;;;;;;;;;;;;;;;;;;5022342;28;19921;-84
2022/08/02 00:27:48;;;;;;;;;;;;;;;;;;5020809;28;19921;-84
2022/08/02 00:30:13;;;;;;;;;;;;;;;;;;5020805;28;20395;-83
2022/08/02 00:32:39;;;;;;;;;;;;;;;;;;5017868;28;19917;-83
2022/08/02 00:35:04;;;;;;;;;;;;;;;;;;5022588;28;19913;-83
2022/08/02 00:37:29;;;;;;;;;;;;;;;;;;5020415;28;19909;-83
2022/08/02 00:39:56;;;;;;;;;;;;;;;;;;5012602;28;20000;-83
2022/08/02 00:42:21;;;;;;;;;;;;;;;;;;5017560;28;19918;-83
2022/08/02 00:44:46;;;;;;;;;;;;;;;;;;5027166;28;20593;-83
2022/08/02 00:47:11;;;;;;;;;;;;;;;;;;5029106;28;19944;-83
2022/08/02 00:49:36;;;;;;;;;;;;;;;;;;5017806;28;20338;-83
2022/08/02 00:52:02;;;;;;;;;;;;;;;;;;5022961;28;19916;-83
2022/08/02 00:54:27;;;;;;;;;;;;;;;;;;5020873;28;19914;-83
2022/08/02 00:56:52;;;;;;;;;;;;;;;;;;5021550;28;19910;-83
2022/08/02 00:59:17;;;;;;;;;;;;;;;;;;5021412;28;20472;-83
2022/08/02 01:01:42;;;;;;;;;;;;;;;;;;5017593;28;19913;-83
2022/08/02 01:04:08;;;;;;;;;;;;;;;;;;5023162;28;19920;-84
2022/08/02 01:06:33;;;;;;;;;;;;;;;;;;5020766;28;20291;-84
2022/08/02 01:08:58;;;;;;;;;;;;;;;;;;5017701;28;19924;-83
2022/08/02 01:11:23;;;;;;;;;;;;;;;;;;5019358;28;20000;-83
2022/08/02 01:13:49;;;;;;;;;;;;;;;;;;5023805;28;19983;-83
2022/08/02 01:16:14;;;;;;;;;;;;;;;;;;5024376;28;20290;-83
2022/08/02 01:18:40;;;;;;;;;;;;;;;;;;5018813;28;19917;-83
2022/08/02 01:21:05;;;;;;;;;;;;;;;;;;5018428;28;20557;-83
2022/08/02 01:23:31;;;;;;;;;;;;;;;;;;5017168;28;19941;-83
2022/08/02 01:25:56;;;;;;;;;;;;;;;;;;5024583;28;19916;-83
2022/08/02 01:28:22;;;;;;;;;;;;;;;;;;5020727;28;19980;-83
2022/08/02 01:30:47;;;;;;;;;;;;;;;;;;5022331;28;19939;-84
2022/08/02 01:33:12;;;;;;;;;;;;;;;;;;5021141;28;19999;-83
2022/08/02 01:35:37;;;;;;;;;;;;;;;;;;5017151;28;20013;-84
2022/08/02 01:38:02;;;;;;;;;;;;;;;;;;5020374;28;19948;-84
2022/08/02 01:40:27;;;;;;;;;;;;;;;;;;5017403;28;20382;-84
2022/08/02 01:42:53;;;;;;;;;;;;;;;;;;5012242;28;19924;-83
2022/08/02 01:45:18;;;;;;;;;;;;;;;;;;5018442;28;20359;-84
2022/08/02 01:47:43;;;;;;;;;;;;;;;;;;5017737;28;19920;-84
2022/08/02 01:50:08;;;;;;;;;;;;;;;;;;5018309;28;19913;-84
2022/08/02 01:52:34;;;;;;;;;;;;;;;;;;5017755;28;20364;-84
2022/08/02 01:54:59;;;;;;;;;;;;;;;;;;5025461;28;19967;-84
2022/08/02 01:57:24;;;;;;;;;;;;;;;;;;5024036;28;19925;-83
2022/08/02 01:59:49;;;;;;;;;;;;;;;;;;5017614;28;19917;-83
2022/08/02 02:02:14;;;;;;;;;;;;;;;;;;5018137;28;19968;-83
2022/08/02 02:04:39;;;;;;;;;;;;;;;;;;5022285;28;21655;-83
2022/08/02 02:07:05;;;;;;;;;;;;;;;;;;5021599;28;20410;-83
2022/08/02 02:09:30;;;;;;;;;;;;;;;;;;5020197;28;19921;-83
2022/08/02 02:11:55;;;;;;;;;;;;;;;;;;5026201;28;19952;-83
2022/08/02 02:14:20;;;;;;;;;;;;;;;;;;5027913;28;19913;-83
2022/08/02 02:16:45;;;;;;;;;;;;;;;;;;5020221;28;19974;-83
2022/08/02 02:19:11;;;;;;;;;;;;;;;;;;5017880;28;19914;-83
2022/08/02 02:21:36;;;;;;;;;;;;;;;;;;5019216;28;19917;-83
2022/08/02 02:24:01;;;;;;;;;;;;;;;;;;5020211;28;19920;-83
2022/08/02 02:26:26;;;;;;;;;;;;;;;;;;5016042;28;19918;-83
2022/08/02 02:28:51;;;;;;;;;;;;;;;;;;5022411;28;19914;-83
2022/08/02 02:31:17;;;;;;;;;;;;;;;;;;5014003;28;20008;-83
2022/08/02 02:33:42;;;;;;;;;;;;;;;;;;5020109;28;19913;-83
2022/08/02 02:36:08;;;;;;;;;;;;;;;;;;5024648;28;19914;-83
2022/08/02 02:38:33;;;;;;;;;;;;;;;;;;5023377;28;19913;-83
2022/08/02 02:40:58;;;;;;;;;;;;;;;;;;5016185;28;21709;-83
2022/08/02 02:43:23;;;;;;;;;;;;;;;;;;5013196;28;19913;-83
2022/08/02 02:45:49;;;;;;;;;;;;;;;;;;5022743;28;20387;-83
2022/08/02 02:48:14;;;;;;;;;;;;;;;;;;5018165;28;20395;-83
2022/08/02 02:50:39;;;;;;;;;;;;;;;;;;5017442;28;19996;-83
2022/08/02 02:53:05;;;;;;;;;;;;;;;;;;5020741;28;20050;-83
2022/08/02 02:55:30;;;;;;;;;;;;;;;;;;5015517;28;19913;-83
2022/08/02 02:57:56;;;;;;;;;;;;;;;;;;5026876;28;20378;-83
2022/08/02 03:01:26;;;;;;;;;;;;;;;;;;5017730;28;19922;-83
2022/08/02 03:03:06;;;;;;;;;;;;;;;;;;5018114;28;19921;-83
2022/08/02 03:05:31;;;;;;;;;;;;;;;;;;5020122;28;20055;-83
2022/08/02 03:07:56;;;;;;;;;;;;;;;;;;5024039;28;19913;-83
2022/08/02 03:10:21;;;;;;;;;;;;;;;;;;5021437;28;19921;-83
2022/08/02 03:12:46;;;;;;;;;;;;;;;;;;5031738;28;19920;-83
2022/08/02 03:15:12;;;;;;;;;;;;;;;;;;5020528;28;19928;-83
2022/08/02 03:17:37;;;;;;;;;;;;;;;;;;5016797;28;19945;-83
2022/08/02 03:20:04;;;;;;;;;;;;;;;;;;5019443;28;19909;-83
2022/08/02 03:22:29;;;;;;;;;;;;;;;;;;5018357;28;19924;-83
2022/08/02 03:24:54;;;;;;;;;;;;;;;;;;5019718;28;19909;-83
2022/08/02 03:27:19;;;;;;;;;;;;;;;;;;5021668;28;20450;-82
2022/08/02 03:29:45;;;;;;;;;;;;;;;;;;5019779;28;19971;-83
2022/08/02 03:32:11;;;;;;;;;;;;;;;;;;5024851;28;20291;-83
2022/08/02 03:34:36;;;;;;;;;;;;;;;;;;5012685;28;19913;-83
2022/08/02 03:37:01;;;;;;;;;;;;;;;;;;5021107;28;19915;-82
2022/08/02 03:39:26;;;;;;;;;;;;;;;;;;5011407;28;20370;-83
2022/08/02 03:41:51;;;;;;;;;;;;;;;;;;5019584;28;19917;-83
2022/08/02 03:44:16;;;;;;;;;;;;;;;;;;5016185;28;20353;-83
2022/08/02 03:46:42;;;;;;;;;;;;;;;;;;5018800;28;19913;-83
2022/08/02 03:49:07;;;;;;;;;;;;;;;;;;5021227;28;19909;-83
2022/08/02 03:51:32;;;;;;;;;;;;;;;;;;5024965;28;19925;-83
2022/08/02 03:53:57;;;;;;;;;;;;;;;;;;5024063;28;19913;-83
2022/08/02 03:56:23;;;;;;;;;;;;;;;;;;5021318;28;19913;-85
2022/08/02 03:58:48;;;;;;;;;;;;;;;;;;5026803;28;19944;-84
2022/08/02 04:01:13;;;;;;;;;;;;;;;;;;5024814;28;19909;-83
2022/08/02 04:03:38;;;;;;;;;;;;;;;;;;5029267;28;19971;-81
2022/08/02 04:06:03;;;;;;;;;;;;;;;;;;5016541;28;19909;-82
2022/08/02 04:08:28;;;;;;;;;;;;;;;;;;5018839;28;19937;-83
2022/08/02 04:13:37;;;;;;;;;;;;;;;;;;5025365;28;20283;-83
2022/08/02 04:16:03;;;;;;;;;;;;;;;;;;5024016;28;20009;-82
2022/08/02 04:18:28;;;;;;;;;;;;;;;;;;5028905;28;19913;-83
2022/08/02 04:20:53;;;;;;;;;;;;;;;;;;5021759;28;19978;-83
2022/08/02 04:23:18;;;;;;;;;;;;;;;;;;5025614;28;19917;-83
2022/08/02 04:25:43;;;;;;;;;;;;;;;;;;5022564;28;19913;-83
2022/08/02 04:28:08;;;;;;;;;;;;;;;;;;5026634;28;19913;-83
2022/08/02 04:30:34;;;;;;;;;;;;;;;;;;5023073;28;19932;-83
2022/08/02 04:32:59;;;;;;;;;;;;;;;;;;5023736;28;20004;-83
2022/08/02 04:35:24;;;;;;;;;;;;;;;;;;5021056;28;19920;-84
2022/08/02 04:37:49;;;;;;;;;;;;;;;;;;5020733;28;19933;-84
2022/08/02 04:40:15;;;;;;;;;;;;;;;;;;5024754;28;20652;-84
2022/08/02 04:42:40;;;;;;;;;;;;;;;;;;5030012;28;19969;-84
2022/08/02 04:45:05;;;;;;;;;;;;;;;;;;5027860;28;19918;-84
2022/08/02 04:47:30;;;;;;;;;;;;;;;;;;5024005;28;20060;-84
2022/08/02 04:49:55;;;;;;;;;;;;;;;;;;5018796;28;20008;-84
2022/08/02 04:52:20;;;;;;;;;;;;;;;;;;5020653;28;19920;-85
2022/08/02 04:54:46;;;;;;;;;;;;;;;;;;5020379;28;19925;-85
2022/08/02 04:59:55;;;;;;;;;;;;;;;;;;5021957;28;19943;-85
2022/08/02 05:02:20;;;;;;;;;;;;;;;;;;5023773;28;19917;-86
2022/08/02 05:04:45;;;;;;;;;;;;;;;;;;5020886;28;19921;-86
2022/08/02 05:07:10;;;;;;;;;;;;;;;;;;5022205;28;20429;-85
2022/08/02 05:09:35;;;;;;;;;;;;;;;;;;5023790;28;19929;-85
2022/08/02 05:12:00;;;;;;;;;;;;;;;;;;5021854;28;19921;-85
2022/08/02 05:14:26;;;;;;;;;;;;;;;;;;5021035;28;19913;-84
2022/08/02 05:16:51;;;;;;;;;;;;;;;;;;5022375;28;20007;-84
2022/08/02 05:19:16;;;;;;;;;;;;;;;;;;5022923;28;20260;-84
2022/08/02 05:21:41;;;;;;;;;;;;;;;;;;5022802;28;19921;-84
2022/08/02 05:24:06;;;;;;;;;;;;;;;;;;5018424;28;20004;-84
2022/08/02 05:26:32;;;;;;;;;;;;;;;;;;5024417;28;19917;-84
2022/08/02 05:28:57;;;;;;;;;;;;;;;;;;5022522;28;20264;-84
2022/08/02 05:31:22;;;;;;;;;;;;;;;;;;5023557;28;20282;-84
2022/08/02 05:33:47;;;;;;;;;;;;;;;;;;5023272;28;20427;-85
2022/08/02 05:36:12;;;;;;;;;;;;;;;;;;5022275;28;19913;-84
2022/08/02 05:38:37;;;;;;;;;;;;;;;;;;5017307;28;19917;-84
2022/08/02 05:41:03;;;;;;;;;;;;;;;;;;5017202;28;19921;-85
2022/08/02 05:43:28;;;;;;;;;;;;;;;;;;5020265;28;19913;-85
2022/08/02 05:45:53;;;;;;;;;;;;;;;;;;5027057;28;20386;-85
2022/08/02 05:48:19;;;;;;;;;;;;;;;;;;5017371;28;19921;-85
2022/08/02 05:50:44;;;;;;;;;;;;;;;;;;5018040;28;19913;-86
2022/08/02 05:53:09;;;;;;;;;;;;;;;;;;5022982;28;19917;-85
2022/08/02 05:55:34;;;;;;;;;;;;;;;;;;5022262;28;20008;-85
2022/08/02 05:57:59;;;;;;;;;;;;;;;;;;5021962;28;20341;-85
2022/08/02 06:00:25;;;;;;;;;;;;;;;;;;5018648;28;19924;-86
2022/08/02 06:02:50;;;;;;;;;;;;;;;;;;5025451;28;19918;-86
2022/08/02 06:05:15;;;;;;;;;;;;;;;;;;5023843;28;19913;-85
2022/08/02 06:07:40;;;;;;;;;;;;;;;;;;5022789;28;20008;-85
2022/08/02 06:10:05;;;;;;;;;;;;;;;;;;5014870;28;19921;-86
2022/08/02 06:12:31;;;;;;;;;;;;;;;;;;5029544;28;19923;-86
2022/08/02 06:14:56;;;;;;;;;;;;;;;;;;5031593;28;19913;-86
2022/08/02 06:17:21;;;;;;;;;;;;;;;;;;5017282;28;19917;-86
2022/08/02 06:19:47;;;;;;;;;;;;;;;;;;5022945;28;19917;-86
2022/08/02 06:22:15;;;;;;;;;;;;;;;;;;5026703;28;19917;-86
2022/08/02 06:24:40;;;;;;;;;;;;;;;;;;5025118;28;20001;-87
2022/08/02 06:27:05;;;;;;;;;;;;;;;;;;5022487;28;19991;-86
2022/08/02 06:29:30;;;;;;;;;;;;;;;;;;5020511;28;20379;-85
2022/08/02 06:31:55;;;;;;;;;;;;;;;;;;5022632;28;19960;-86
2022/08/02 06:34:20;;;;;;;;;;;;;;;;;;5024423;28;20330;-86
2022/08/02 06:36:46;;;;;;;;;;;;;;;;;;5014927;28;19921;-86
2022/08/02 06:39:11;;;;;;;;;;;;;;;;;;5019014;28;19955;-86
2022/08/02 06:41:36;;;;;;;;;;;;;;;;;;5023930;28;20323;-87
2022/08/02 06:44:01;;;;;;;;;;;;;;;;;;5020757;28;20356;-86
2022/08/02 06:46:26;;;;;;;;;;;;;;;;;;5019750;28;19913;-86
2022/08/02 06:48:51;;;;;;;;;;;;;;;;;;5022504;28;20350;-86
2022/08/02 06:51:17;;;;;;;;;;;;;;;;;;5024930;28;19913;-86
2022/08/02 06:53:42;;;;;;;;;;;;;;;;;;5015612;28;19913;-87
2022/08/02 06:56:07;;;;;;;;;;;;;;;;;;5020861;28;20002;-86
2022/08/02 06:58:32;;;;;;;;;;;;;;;;;;5012975;28;19996;-87
2022/08/02 07:00:57;;;;;;;;;;;;;;;;;;5012997;28;20280;-88
2022/08/02 07:03:24;;;;;;;;;;;;;;;;;;5017221;28;19964;-86
2022/08/02 07:05:49;;;;;;;;;;;;;;;;;;5019049;28;19913;-87
2022/08/02 07:08:14;;;;;;;;;;;;;;;;;;5017013;28;19921;-87
2022/08/02 07:10:39;;;;;;;;;;;;;;;;;;5015740;28;19917;-87
2022/08/02 07:13:05;;;;;;;;;;;;;;;;;;5014838;28;19999;-86
2022/08/02 07:15:30;;;;;;;;;;;;;;;;;;5015298;28;19914;-87
2022/08/02 07:17:55;;;;;;;;;;;;;;;;;;5016405;28;19964;-86
2022/08/02 07:20:20;;;;;;;;;;;;;;;;;;5014400;28;19913;-86
2022/08/02 07:22:45;;;;;;;;;;;;;;;;;;5022323;28;19932;-87
2022/08/02 07:25:11;;;;;;;;;;;;;;;;;;5018973;28;20397;-85
2022/08/02 07:27:36;;;;;;;;;;;;;;;;;;5017068;28;19956;-86
2022/08/02 07:30:01;;;;;;;;;;;;;;;;;;5029564;28;19909;-85
2022/08/02 07:32:26;;;;;;;;;;;;;;;;;;5024534;28;19952;-86
2022/08/02 07:34:51;;;;;;;;;;;;;;;;;;5026538;28;20393;-85
2022/08/02 07:37:16;;;;;;;;;;;;;;;;;;5024468;28;19967;-85
2022/08/02 07:39:42;;;;;;;;;;;;;;;;;;5018655;28;21611;-85
2022/08/02 07:42:07;;;;;;;;;;;;;;;;;;5018536;28;19917;-85
2022/08/02 07:44:35;;;;;;;;;;;;;;;;;;5022160;28;19913;-85
2022/08/02 07:47:00;;;;;;;;;;;;;;;;;;5017907;28;19937;-85
2022/08/02 07:49:25;;;;;;;;;;;;;;;;;;5027837;28;19924;-85
2022/08/02 07:51:50;;;;;;;;;;;;;;;;;;5020022;28;19914;-85
2022/08/02 07:54:16;;;;;;;;;;;;;;;;;;5021233;28;20358;-85
2022/08/02 07:56:41;;;;;;;;;;;;;;;;;;5016985;28;19959;-86
2022/08/02 07:59:06;;;;;;;;;;;;;;;;;;5026113;28;20374;-86
2022/08/02 08:01:42;;;;;;;;;;;;;;;;;;5021517;28;20001;-85
2022/08/02 08:04:07;;;;;;;;;;;;;;;;;;5024267;28;19917;-86
2022/08/02 08:06:33;;;;;;;;;;;;;;;;;;5017296;28;19914;-85
2022/08/02 08:08:58;;;;;;;;;;;;;;;;;;5030832;28;19913;-85
2022/08/02 08:11:23;;;;;;;;;;;;;;;;;;5023327;28;19914;-86
2022/08/02 08:13:48;;;;;;;;;;;;;;;;;;5021768;28;20052;-85
2022/08/02 08:16:13;;;;;;;;;;;;;;;;;;5021896;28;19995;-86
2022/08/02 08:18:38;;;;;;;;;;;;;;;;;;5021045;28;20490;-86
2022/08/02 08:21:04;;;;;;;;;;;;;;;;;;5014485;28;19913;-86
2022/08/02 08:23:30;;;;;;;;;;;;;;;;;;5022352;28;19963;-85
2022/08/02 08:25:55;;;;;;;;;;;;;;;;;;5031268;28;19921;-88
2022/08/02 08:28:20;;;;;;;;;;;;;;;;;;5018871;28;20824;-88
2022/08/02 08:30:46;;;;;;;;;;;;;;;;;;5024219;28;20015;-86
2022/08/02 08:33:11;;;;;;;;;;;;;;;;;;5025634;28;19913;-87
2022/08/02 08:35:37;;;;;;;;;;;;;;;;;;5027027;28;19917;-88
2022/08/02 08:38:02;;;;;;;;;;;;;;;;;;5017673;28;19913;-86
2022/08/02 08:40:27;;;;;;;;;;;;;;;;;;5021681;28;20429;-86
2022/08/02 08:42:52;;;;;;;;;;;;;;;;;;5028735;28;20431;-87
2022/08/02 08:45:18;;;;;;;;;;;;;;;;;;5019485;28;20004;-87
2022/08/02 08:47:43;;;;;;;;;;;;;;;;;;5022548;28;20286;-86
2022/08/02 08:50:08;;;;;;;;;;;;;;;;;;5026289;28;20023;-87
2022/08/02 08:52:33;;;;;;;;;;;;;;;;;;5016824;28;19913;-86
2022/08/02 08:54:58;;;;;;;;;;;;;;;;;;5022834;28;20067;-86
2022/08/02 08:57:24;;;;;;;;;;;;;;;;;;5019276;28;19945;-86
2022/08/02 08:59:49;;;;;;;;;;;;;;;;;;5020372;28;20200;-87
2022/08/02 09:02:14;;;;;;;;;;;;;;;;;;5021045;28;19924;-87
2022/08/02 09:04:39;;;;;;;;;;;;;;;;;;5021510;28;19920;-87
2022/08/02 09:07:04;;;;;;;;;;;;;;;;;;5021403;28;19913;-85
2022/08/02 09:09:29;;;;;;;;;;;;;;;;;;5020869;28;19945;-86
2022/08/02 09:11:54;;;;;;;;;;;;;;;;;;5016601;28;19921;-87
2022/08/02 09:14:20;;;;;;;;;;;;;;;;;;5035408;28;19913;-88
2022/08/02 09:16:45;;;;;;;;;;;;;;;;;;5022896;28;19928;-86
2022/08/02 09:19:10;;;;;;;;;;;;;;;;;;5023544;28;19983;-84
2022/08/02 09:21:35;;;;;;;;;;;;;;;;;;5018385;28;20821;-85
2022/08/02 09:24:00;;;;;;;;;;;;;;;;;;5029717;28;19921;-86
2022/08/02 09:26:26;;;;;;;;;;;;;;;;;;5021250;28;19983;-85
2022/08/02 09:28:51;;;;;;;;;;;;;;;;;;5020759;28;19913;-86
2022/08/02 09:31:17;;;;;;;;;;;;;;;;;;5020813;28;19914;-86
2022/08/02 09:33:42;;;;;;;;;;;;;;;;;;5022360;28;19920;-86
2022/08/02 09:36:07;;;;;;;;;;;;;;;;;;5026600;28;19937;-85
2022/08/02 09:38:32;;;;;;;;;;;;;;;;;;5023287;28;19920;-86
2022/08/02 09:40:57;;;;;;;;;;;;;;;;;;5025027;28;19987;-86
2022/08/02 09:43:23;;;;;;;;;;;;;;;;;;5022301;28;19917;-87
2022/08/02 09:45:48;;;;;;;;;;;;;;;;;;5021199;28;19951;-86
2022/08/02 09:48:13;;;;;;;;;;;;;;;;;;5020158;28;19920;-87
2022/08/02 09:50:38;;;;;;;;;;;;;;;;;;5014176;28;20020;-87
2022/08/02 09:53:04;;;;;;;;;;;;;;;;;;5016125;28;19914;-87
2022/08/02 09:55:29;;;;;;;;;;;;;;;;;;5019229;28;19945;-87
2022/08/02 09:57:54;;;;;;;;;;;;;;;;;;5017928;28;20416;-87
2022/08/02 10:00:19;;;;;;;;;;;;;;;;;;5017083;28;19913;-89
2022/08/02 10:02:44;;;;;;;;;;;;;;;;;;5018888;28;19979;-89
2022/08/02 10:05:10;;;;;;;;;;;;;;;;;;5020935;28;19913;-87
2022/08/02 10:07:35;;;;;;;;;;;;;;;;;;5020249;28;20644;-87
2022/08/02 10:10:00;;;;;;;;;;;;;;;;;;5021656;28;19991;-85
2022/08/02 10:12:25;;;;;;;;;;;;;;;;;;5023965;28;19921;-85
2022/08/02 10:14:50;;;;;;;;;;;;;;;;;;5020680;28;19940;-84
2022/08/02 10:17:16;;;;;;;;;;;;;;;;;;5017858;28;19921;-86
2022/08/02 10:19:41;;;;;;;;;;;;;;;;;;5015985;28;20465;-89
2022/08/02 10:22:06;;;;;;;;;;;;;;;;;;5019444;28;19975;-85
2022/08/02 10:24:31;;;;;;;;;;;;;;;;;;5021134;28;19920;-88
2022/08/02 10:26:56;;;;;;;;;;;;;;;;;;5019187;28;19913;-85
2022/08/02 10:29:22;;;;;;;;;;;;;;;;;;5015201;28;19985;-87
2022/08/02 10:31:47;;;;;;;;;;;;;;;;;;5017450;28;19917;-85
2022/08/02 10:34:22;;;;;;;;;;;;;;;;;;;;;
2022/08/02 10:42:46;;;;;;;;;;;;;;;;;;;;;
2022/08/02 10:56:17;;;;;;;;;;;;;;;;;;5001355;28;19967;-86
2022/08/02 10:58:43;;;;;;;;;;;;;;;;;;5014595;28;19980;-85
2022/08/02 11:01:08;;;;;;;;;;;;;;;;;;5026781;28;20399;-85
2022/08/02 11:03:33;;;;;;;;;;;;;;;;;;5016947;28;19917;-84
2022/08/02 11:05:58;;;;;;;;;;;;;;;;;;5028390;28;20371;-87
2022/08/02 11:08:23;;;;;;;;;;;;;;;;;;5017708;28;19940;-84
2022/08/02 11:10:49;;;;;;;;;;;;;;;;;;5021150;28;19959;-84
2022/08/02 11:13:14;;;;;;;;;;;;;;;;;;5022458;28;19917;-86
2022/08/02 11:15:39;;;;;;;;;;;;;;;;;;5020190;28;20295;-84
2022/08/02 11:18:04;;;;;;;;;;;;;;;;;;5025727;28;19999;-86
2022/08/02 11:20:29;;;;;;;;;;;;;;;;;;5017149;28;19917;-87
2022/08/02 11:22:55;;;;;;;;;;;;;;;;;;5019231;28;19918;-85
2022/08/02 11:25:20;;;;;;;;;;;;;;;;;;5020255;28;20008;-87
2022/08/02 11:27:45;;;;;;;;;;;;;;;;;;5018367;28;20383;-87
2022/08/02 11:30:10;;;;;;;;;;;;;;;;;;5017074;28;20005;-86
2022/08/02 11:32:35;;;;;;;;;;;;;;;;;;5019622;28;19952;-85
2022/08/02 11:35:02;;;;;;;;;;;;;;;;;;5026672;28;20271;-87
2022/08/02 11:37:27;;;;;;;;;;;;;;;;;;5022101;28;19913;-85
2022/08/02 11:39:52;;;;;;;;;;;;;;;;;;5019587;28;19924;-87
2022/08/02 11:42:17;;;;;;;;;;;;;;;;;;5028580;28;19961;-86
2022/08/02 11:44:43;;;;;;;;;;;;;;;;;;5018850;28;19964;-89
2022/08/02 11:47:08;;;;;;;;;;;;;;;;;;5019233;28;19917;-85
2022/08/02 11:49:33;;;;;;;;;;;;;;;;;;5020850;28;19921;-85
2022/08/02 11:52:00;;;;;;;;;;;;;;;;;;5023466;28;20260;-86
2022/08/02 11:54:25;;;;;;;;;;;;;;;;;;5017450;28;19913;-87
2022/08/02 11:56:50;;;;;;;;;;;;;;;;;;5020231;28;19921;-85
2022/08/02 11:59:16;;;;;;;;;;;;;;;;;;5016580;28;19921;-87
2022/08/02 12:01:41;;;;;;;;;;;;;;;;;;5016471;28;19921;-88
2022/08/02 12:04:06;;;;;;;;;;;;;;;;;;5016947;28;19970;-89
2022/08/02 12:06:31;;;;;;;;;;;;;;;;;;5019910;28;20364;-88
2022/08/02 12:08:56;;;;;;;;;;;;;;;;;;5022674;28;19983;-88
2022/08/02 12:11:22;;;;;;;;;;;;;;;;;;5022972;28;19948;-85
2022/08/02 12:13:47;;;;;;;;;;;;;;;;;;5019391;28;19924;-86
2022/08/02 12:21:40;;;;;;;;;;;;;;;;;;5017523;28;20020;-85
2022/08/02 12:24:05;;;;;;;;;;;;;;;;;;5020675;28;20009;-86
2022/08/02 12:26:30;;;;;;;;;;;;;;;;;;5015963;28;19917;-86
2022/08/02 12:28:56;;;;;;;;;;;;;;;;;;5018659;28;19921;-85
2022/08/02 12:31:21;;;;;;;;;;;;;;;;;;5013807;28;19913;-88
2022/08/02 12:33:46;;;;;;;;;;;;;;;;;;5023149;28;19924;-86
2022/08/02 12:36:11;;;;;;;;;;;;;;;;;;5022187;28;19913;-87
2022/08/02 12:38:37;;;;;;;;;;;;;;;;;;5014913;28;20335;-88
2022/08/02 12:41:02;;;;;;;;;;;;;;;;;;5021772;28;19913;-87
2022/08/02 12:43:27;;;;;;;;;;;;;;;;;;5027146;28;19932;-85
2022/08/02 12:45:52;;;;;;;;;;;;;;;;;;5015205;28;21133;-86
2022/08/02 12:48:17;;;;;;;;;;;;;;;;;;5015868;28;19914;-88
2022/08/02 12:50:43;;;;;;;;;;;;;;;;;;5016968;28;20407;-87
2022/08/02 12:53:08;;;;;;;;;;;;;;;;;;5022161;28;20490;-86
2022/08/02 12:55:34;;;;;;;;;;;;;;;;;;5017140;28;19917;-85
2022/08/02 12:57:59;;;;;;;;;;;;;;;;;;5017213;28;19913;-86
2022/08/02 13:00:25;;;;;;;;;;;;;;;;;;5014525;28;20390;-85
2022/08/02 13:02:50;;;;;;;;;;;;;;;;;;5017624;28;20212;-87
2022/08/02 13:05:15;;;;;;;;;;;;;;;;;;5016471;28;20520;-87
2022/08/02 13:07:43;;;;;;;;;;;;;;;;;;5017949;28;19917;-87
2022/08/02 13:10:08;;;;;;;;;;;;;;;;;;5020875;28;19917;-84
2022/08/02 13:12:34;;;;;;;;;;;;;;;;;;5021971;28;20023;-88
2022/08/02 13:14:59;;;;;;;;;;;;;;;;;;5022029;28;19984;-88
2022/08/02 13:17:25;;;;;;;;;;;;;;;;;;5016787;28;19924;-85
2022/08/02 13:19:50;;;;;;;;;;;;;;;;;;5016388;28;19913;-86
2022/08/02 13:22:16;;;;;;;;;;;;;;;;;;5017662;28;19964;-86
2022/08/02 13:24:42;;;;;;;;;;;;;;;;;;5014762;28;20012;-87
2022/08/02 13:27:07;;;;;;;;;;;;;;;;;;5017464;28;20052;-85
2022/08/02 13:29:32;;;;;;;;;;;;;;;;;;5017106;28;20290;-86
2022/08/02 13:31:58;;;;;;;;;;;;;;;;;;5020121;28;19921;-87
2022/08/02 13:34:24;;;;;;;;;;;;;;;;;;5018027;28;19996;-86
2022/08/02 13:36:49;;;;;;;;;;;;;;;;;;5016505;28;20000;-86
2022/08/02 13:39:14;;;;;;;;;;;;;;;;;;5017202;28;19921;-87
2022/08/02 13:41:39;;;;;;;;;;;;;;;;;;5016121;28;19971;-87
2022/08/02 13:44:05;;;;;;;;;;;;;;;;;;5019199;28;20712;-86
2022/08/02 13:46:30;;;;;;;;;;;;;;;;;;5020386;28;19914;-87
2022/08/02 13:48:55;;;;;;;;;;;;;;;;;;5016099;28;19944;-87
2022/08/02 13:51:20;;;;;;;;;;;;;;;;;;5017562;28;20479;-88
2022/08/02 13:53:45;;;;;;;;;;;;;;;;;;5023435;28;20405;-84
2022/08/02 13:56:11;;;;;;;;;;;;;;;;;;5021973;28;19917;-88
2022/08/02 13:58:36;;;;;;;;;;;;;;;;;;5015659;28;19913;-86
2022/08/02 14:01:01;;;;;;;;;;;;;;;;;;5017120;28;19921;-86
2022/08/02 14:03:26;;;;;;;;;;;;;;;;;;5014802;28;19917;-86
2022/08/02 14:05:51;;;;;;;;;;;;;;;;;;5010336;28;20443;-88
2022/08/02 14:08:17;;;;;;;;;;;;;;;;;;5015880;28;19913;-87
2022/08/02 14:10:42;;;;;;;;;;;;;;;;;;5013509;28;20320;-88
2022/08/02 14:13:07;;;;;;;;;;;;;;;;;;5019185;28;20406;-90
2022/08/02 14:15:32;;;;;;;;;;;;;;;;;;5023591;28;19953;-88
2022/08/02 14:17:57;;;;;;;;;;;;;;;;;;5019627;28;20404;-87
2022/08/02 14:20:23;;;;;;;;;;;;;;;;;;5017296;28;19921;-87
2022/08/02 14:22:48;;;;;;;;;;;;;;;;;;5013781;28;19921;-87
2022/08/02 14:25:13;;;;;;;;;;;;;;;;;;5013508;28;19914;-87
2022/08/02 14:27:38;;;;;;;;;;;;;;;;;;5014489;28;19945;-86
2022/08/02 14:30:04;;;;;;;;;;;;;;;;;;5017569;28;19913;-87
2022/08/02 14:32:29;;;;;;;;;;;;;;;;;;5017787;28;19917;-86
2022/08/02 14:34:54;;;;;;;;;;;;;;;;;;5022297;28;20437;-85
2022/08/02 14:37:19;;;;;;;;;;;;;;;;;;5018546;28;19914;-87
2022/08/02 14:39:44;;;;;;;;;;;;;;;;;;5015275;28;20060;-86
2022/08/02 14:42:09;;;;;;;;;;;;;;;;;;5026704;28;19963;-87
2022/08/02 14:44:52;;;;;;;;;;;;;;;;;;5078822;27;19955;-87
2022/08/02 14:47:17;;;;;;;;;;;;;;;;;;5079602;28;19948;-89
2022/08/02 14:49:42;;;;;;;;;;;;;;;;;;5077835;28;19924;-88
2022/08/02 14:52:07;;;;;;;;;;;;;;;;;;5082025;28;19942;-86
2022/08/02 14:54:32;;;;;;;;;;;;;;;;;;5076677;28;20554;-86
2022/08/02 14:56:57;;;;;;;;;;;;;;;;;;5075894;28;19912;-87
2022/08/02 14:59:23;;;;;;;;;;;;;;;;;;5073297;28;19921;-86
2022/08/02 15:01:48;;;;;;;;;;;;;;;;;;5074788;28;19936;-87
2022/08/02 15:04:13;;;;;;;;;;;;;;;;;;5074133;28;19928;-88
2022/08/02 15:06:38;;;;;;;;;;;;;;;;;;5069975;28;19995;-88
2022/08/02 15:09:03;;;;;;;;;;;;;;;;;;5077354;28;19919;-86
2022/08/02 15:11:28;;;;;;;;;;;;;;;;;;5073126;28;20274;-87
2022/08/02 15:13:54;;;;;;;;;;;;;;;;;;5072389;28;19940;-87
2022/08/02 15:16:19;;;;;;;;;;;;;;;;;;5079316;28;19944;-87
2022/08/02 15:18:45;;;;;;;;;;;;;;;;;;5068842;28;20374;-86
2022/08/02 15:21:11;;;;;;;;;;;;;;;;;;5074132;28;19912;-88
2022/08/02 15:23:36;;;;;;;;;;;;;;;;;;5071236;28;19920;-85
2022/08/02 15:26:01;;;;;;;;;;;;;;;;;;5069678;28;20268;-87
2022/08/02 15:28:29;;;;;;;;;;;;;;;;;;5075086;28;20468;-86
2022/08/02 15:30:54;;;;;;;;;;;;;;;;;;5074789;28;19913;-87
2022/08/02 15:33:22;;;;;;;;;;;;;;;;;;5080017;28;19924;-87
2022/08/02 18:08:04;;;;;;;;;;;;;;;;;;4855700;29;19926;-86
2022/08/02 18:13:36;;;;;;;;;;;;;;;;;;4864018;29;19923;-85
2022/08/02 18:32:22;;;;;;;;;;;;;;;;;;;;;
2022/08/02 18:34:50;;;;;;;;;;;;;;;;;;4987740;28;19913;-84
2022/08/02 18:48:43;;;;;;;;;;;;;;;;;;4918634;29;19919;-86
2022/08/02 18:53:59;;;;;;;;;;;;;;;;;;4923011;29;20009;-85
2022/08/02 18:56:24;;;;;;;;;;;;;;;;;;4923736;29;20460;-84
2022/08/02 19:10:11;;;;;;;;;;;;;;;;;;4928411;28;19915;-84
2022/08/02 19:12:36;;;;;;;;;;;;;;;;;;4988134;28;19924;-83
2022/08/02 19:17:56;;;;;;;;;;;;;;;;;;4984424;28;20299;-84
2022/08/02 19:23:10;;;;;;;;;;;;;;;;;;4982280;28;20013;-84
2022/08/02 19:25:35;;;;;;;;;;;;;;;;;;4987142;28;19914;-85
2022/08/02 19:28:00;;;;;;;;;;;;;;;;;;4989583;28;19926;-84
2022/08/02 19:44:40;;;;;;;;;;;;;;;;;;4933712;29;20369;-84
2022/08/02 19:50:00;;;;;;;;;;;;;;;;;;;;;
2022/08/02 19:52:33;;;;;;;;;;;;;;;;;;4907677;29;20096;-84
2022/08/02 20:00:47;;;;;;;;;;;;;;;;;;4980760;28;19917;-84
2022/08/02 20:14:12;;;;;;;;;;;;;;;;;;4949807;28;20082;-85
2022/08/02 20:16:37;;;;;;;;;;;;;;;;;;4958612;28;19913;-85
2022/08/02 20:19:02;;;;;;;;;;;;;;;;;;4991037;28;20164;-85
2022/08/02 20:21:27;;;;;;;;;;;;;;;;;;4992903;28;19998;-85
2022/08/02 20:23:55;;;;;;;;;;;;;;;;;;4989602;28;19932;-84
2022/08/02 20:34:47;;;;;;;;;;;;;;;;;;4978058;28;19967;-84
2022/08/02 20:37:12;;;;;;;;;;;;;;;;;;4988877;28;19925;-84
2022/08/02 20:39:45;;;;;;;;;;;;;;;;;;4990557;28;19918;-84
2022/08/02 20:42:11;;;;;;;;;;;;;;;;;;5007436;28;19914;-85
2022/08/02 20:44:36;;;;;;;;;;;;;;;;;;4990121;28;20706;-84
2022/08/02 20:47:01;;;;;;;;;;;;;;;;;;4984577;28;20339;-84
2022/08/02 20:49:26;;;;;;;;;;;;;;;;;;4988782;28;19920;-84
2022/08/02 21:03:18;;;;;;;;;;;;;;;;;;;;;
2022/08/02 21:05:53;;;;;;;;;;;;;;;;;;4989659;28;19918;-84
2022/08/02 21:08:42;;;;;;;;;;;;;;;;;;4989411;28;20594;-83
2022/08/02 21:11:26;;;;;;;;;;;;;;;;;;;;;
2022/08/02 21:19:39;;;;;;;;;;;;;;;;;;4973211;28;19922;-83
2022/08/02 21:22:21;;;;;;;;;;;;;;;;;;;;;
2022/08/02 21:38:36;;;;;;;;;;;;;;;;;;4964368;28;19930;-84
2022/08/02 21:47:15;;;;;;;;;;;;;;;;;;;;;
2022/08/02 21:50:09;;;;;;;;;;;;;;;;;;;;;